Time;durP1;ratioP1;P1;durP2;ratioP2;P2;SDS_P1;SDS_P2;PMS_P1;PMS_P2;Temp;Humidity;BMP_temperature;BMP_pressure;BME280_temperature;BME280_humidity;BME280_pressure;Samples;Min_cycle;Max_cycle;Signal;HPM_P1;HPM_P2
2023/09/23 00:01:44;;;;;;;4.82;1.45;;;11.30;99.90;;;;;;6167732;22;88040;-75
2023/09/23 00:04:10;;;;;;;6.78;1.50;;;11.30;99.90;;;;;;6166755;22;89327;-75
2023/09/23 00:06:35;;;;;;;5.68;1.20;;;11.30;99.90;;;;;;6170314;22;87487;-75
2023/09/23 00:09:03;;;;;;;4.82;1.50;;;11.30;99.90;;;;;;6169705;22;87963;-77
2023/09/23 00:11:29;;;;;;;9.73;1.63;;;11.20;99.90;;;;;;6168565;22;87599;-75
2023/09/23 00:13:55;;;;;;;3.90;1.10;;;11.30;99.90;;;;;;6168541;22;87673;-76
2023/09/23 00:16:21;;;;;;;8.02;2.10;;;11.20;99.90;;;;;;6168752;22;88523;-76
2023/09/23 00:18:47;;;;;;;6.05;2.08;;;11.20;99.90;;;;;;6170066;22;88324;-76
2023/09/23 00:21:13;;;;;;;7.72;1.50;;;11.20;99.90;;;;;;6168253;22;86696;-76
2023/09/23 00:23:39;;;;;;;3.78;1.40;;;11.20;99.90;;;;;;6168680;22;87803;-76
2023/09/23 00:26:10;;;;;;;7.18;1.60;;;11.20;99.90;;;;;;6168073;22;89092;-76
2023/09/23 00:28:36;;;;;;;5.20;1.25;;;11.20;99.90;;;;;;6167876;22;88559;-75
2023/09/23 00:31:14;;;;;;;6.63;1.48;;;11.10;99.90;;;;;;6169019;22;87800;-76
2023/09/23 00:33:40;;;;;;;4.88;1.30;;;11.10;99.90;;;;;;6166620;22;94152;-75
2023/09/23 00:36:10;;;;;;;6.25;1.73;;;11.10;99.90;;;;;;6166100;22;91576;-76
2023/09/23 00:38:37;;;;;;;6.57;1.65;;;11.10;99.90;;;;;;6167409;22;91231;-74
2023/09/23 00:41:07;;;;;;;8.32;1.27;;;11.10;99.90;;;;;;6167163;22;87950;-76
2023/09/23 00:43:34;;;;;;;4.40;1.52;;;11.10;99.90;;;;;;6168482;22;87770;-77
2023/09/23 00:46:03;;;;;;;7.40;1.20;;;11.10;99.90;;;;;;6168711;22;90727;-76
2023/09/23 00:48:32;;;;;;;9.27;1.33;;;11.00;99.90;;;;;;6169385;22;87753;-76
2023/09/23 00:50:59;;;;;;;5.22;1.08;;;11.10;99.90;;;;;;6167267;22;87615;-76
2023/09/23 00:53:25;;;;;;;3.42;1.13;;;11.00;99.90;;;;;;6168769;22;88581;-76
2023/09/23 00:55:55;;;;;;;4.47;0.90;;;11.00;99.90;;;;;;6166533;22;91835;-77
2023/09/23 00:58:22;;;;;;;6.82;1.50;;;11.00;99.90;;;;;;6168522;22;89091;-76
2023/09/23 01:00:51;;;;;;;6.60;2.33;;;11.00;99.90;;;;;;6171106;22;87471;-76
2023/09/23 01:03:20;;;;;;;7.93;2.05;;;11.00;99.90;;;;;;6169892;22;90443;-76
2023/09/23 01:05:49;;;;;;;8.20;1.85;;;11.00;99.90;;;;;;6168319;22;90136;-76
2023/09/23 01:08:20;;;;;;;5.38;1.55;;;11.00;99.90;;;;;;6170537;22;87832;-76
2023/09/23 01:10:49;;;;;;;5.25;1.50;;;11.00;99.90;;;;;;6171349;22;94253;-75
2023/09/23 01:13:23;;;;;;;4.03;1.40;;;11.00;99.90;;;;;;6168114;22;88891;-76
2023/09/23 01:15:49;;;;;;;;;;;11.00;99.90;;;;;;6170952;22;89032;-77
2023/09/23 01:18:15;;;;;;;5.05;1.25;;;11.00;99.90;;;;;;6195143;22;91237;-76
2023/09/23 01:20:51;;;;;;;6.63;1.63;;;11.00;99.90;;;;;;6170127;22;87644;-75
2023/09/23 01:23:17;;;;;;;4.55;1.00;;;11.00;99.90;;;;;;6170060;22;87915;-76
2023/09/23 01:25:43;;;;;;;5.85;1.38;;;11.00;99.90;;;;;;6170053;22;88595;-76
2023/09/23 01:28:11;;;;;;;8.45;1.67;;;11.00;99.90;;;;;;6168618;22;91865;-76
2023/09/23 01:30:46;;;;;;;4.68;1.70;;;11.00;99.90;;;;;;6169857;22;87683;-75
2023/09/23 01:33:14;;;;;;;8.55;1.42;;;11.10;99.90;;;;;;6169624;22;87921;-75
2023/09/23 01:35:41;;;;;;;4.95;1.48;;;11.00;99.90;;;;;;6170340;22;88521;-76
2023/09/23 01:38:07;;;;;;;4.75;1.60;;;11.00;99.90;;;;;;6168361;22;90420;-76
2023/09/23 01:40:39;;;;;;;6.22;1.45;;;11.10;99.90;;;;;;6170492;22;87388;-76
2023/09/23 01:43:06;;;;;;;11.35;1.70;;;11.00;99.90;;;;;;6171342;22;88684;-76
2023/09/23 01:45:32;;;;;;;7.65;1.10;;;11.10;99.90;;;;;;6170993;22;88608;-76
2023/09/23 01:47:58;;;;;;;3.05;1.35;;;11.00;99.90;;;;;;6169791;22;88537;-76
2023/09/23 01:50:24;;;;;;;10.40;1.33;;;11.10;99.90;;;;;;6170240;22;87668;-76
2023/09/23 01:52:51;;;;;;;9.88;1.55;;;11.00;99.90;;;;;;6166678;22;90001;-76
2023/09/23 01:55:17;;;;;;;4.85;1.20;;;11.10;99.90;;;;;;6169302;22;91356;-75
2023/09/23 01:57:43;;;;;;;7.47;1.83;;;11.10;99.90;;;;;;6170520;22;88696;-75
2023/09/23 02:00:22;;;;;;;6.70;1.25;;;11.10;99.90;;;;;;6171258;22;87168;-75
2023/09/23 02:02:48;;;;;;;6.47;1.08;;;11.10;99.90;;;;;;6169303;22;90582;-76
2023/09/23 02:05:15;;;;;;;5.03;1.20;;;11.10;99.90;;;;;;6169885;22;87602;-76
2023/09/23 02:07:42;;;;;;;5.13;1.27;;;11.10;99.90;;;;;;6168410;22;91015;-75
2023/09/23 02:10:14;;;;;;;4.93;1.65;;;11.10;99.90;;;;;;6170425;22;87999;-75
2023/09/23 02:12:43;;;;;;;12.02;2.08;;;11.10;99.90;;;;;;6170820;22;87796;-76
2023/09/23 02:15:15;;;;;;;6.88;1.10;;;11.20;99.90;;;;;;6168687;22;91309;-75
2023/09/23 02:17:48;;;;;;;7.57;1.30;;;11.20;99.90;;;;;;6169612;22;87926;-76
2023/09/23 02:20:19;;;;;;;3.67;1.30;;;11.20;99.90;;;;;;6169334;22;87580;-76
2023/09/23 02:23:05;;;;;;;11.27;1.30;;;11.30;99.90;;;;;;6169097;22;87515;-75
2023/09/23 02:25:31;;;;;;;6.47;1.15;;;11.30;99.90;;;;;;6168971;22;90323;-76
2023/09/23 02:27:57;;;;;;;5.72;1.15;;;11.30;99.90;;;;;;6170091;22;87980;-76
2023/09/23 02:30:23;;;;;;;4.53;1.45;;;11.40;99.90;;;;;;6170292;22;88409;-75
2023/09/23 02:32:49;;;;;;;4.93;1.00;;;11.40;99.90;;;;;;6168626;22;91288;-77
2023/09/23 02:35:16;;;;;;;5.07;1.17;;;11.40;99.90;;;;;;6170719;22;87873;-78
2023/09/23 02:37:44;;;;;;;5.63;1.23;;;11.50;99.90;;;;;;6169334;22;91056;-75
2023/09/23 02:40:14;;;;;;;8.48;1.90;;;11.40;99.90;;;;;;6169995;22;87346;-76
2023/09/23 02:42:59;;;;;;;5.53;1.08;;;11.40;99.90;;;;;;6169521;22;89093;-76
2023/09/23 02:45:43;;;;;;;13.05;2.30;;;11.50;99.90;;;;;;6170142;22;88850;-76
2023/09/23 02:48:08;;;;;;;10.07;1.77;;;11.50;99.90;;;;;;6168157;22;90281;-76
2023/09/23 02:50:36;;;;;;;9.18;1.17;;;11.40;99.90;;;;;;6171321;22;86823;-76
2023/09/23 02:53:02;;;;;;;5.28;1.55;;;11.40;99.90;;;;;;6170506;22;87764;-76
2023/09/23 02:55:28;;;;;;;12.55;1.52;;;11.40;99.90;;;;;;6168240;22;91226;-75
2023/09/23 02:57:54;;;;;;;6.40;1.30;;;11.40;99.90;;;;;;6169681;22;88611;-76
2023/09/23 03:00:21;;;;;;;9.27;1.70;;;11.40;99.90;;;;;;6168608;22;87447;-75
2023/09/23 03:02:57;;;;;;;9.48;2.25;;;11.40;99.90;;;;;;6169449;22;88554;-75
2023/09/23 03:08:18;;;;;;;8.80;1.97;;;11.30;99.90;;;;;;6174608;22;89895;-76
2023/09/23 03:10:46;;;;;;;8.55;1.67;;;11.30;99.90;;;;;;6174577;22;87782;-76
2023/09/23 03:13:11;;;;;;;6.75;1.30;;;11.30;99.90;;;;;;6168429;22;94548;-76
2023/09/23 03:15:41;;;;;;;7.82;1.95;;;11.30;99.90;;;;;;6170437;22;88136;-76
2023/09/23 03:18:07;;;;;;;6.18;2.53;;;11.30;99.90;;;;;;6168151;22;90234;-76
2023/09/23 03:20:36;;;;;;;5.28;1.35;;;11.20;99.90;;;;;;6169557;22;88423;-76
2023/09/23 03:23:03;;;;;;;9.75;1.40;;;11.20;99.90;;;;;;6167620;22;90527;-76
2023/09/23 03:25:30;;;;;;;11.18;1.95;;;11.20;99.90;;;;;;6168825;22;88972;-76
2023/09/23 03:27:57;;;;;;;7.07;1.40;;;11.20;99.90;;;;;;6169987;22;88572;-75
2023/09/23 03:30:23;;;;;;;6.90;1.45;;;11.20;99.90;;;;;;6170386;22;87807;-76
2023/09/23 03:32:49;;;;;;;3.47;1.33;;;11.20;99.90;;;;;;6169209;22;87617;-76
2023/09/23 03:35:20;;;;;;;3.05;1.50;;;11.20;99.90;;;;;;6168177;22;91327;-76
2023/09/23 03:37:48;;;;;;;5.63;1.65;;;11.20;99.90;;;;;;6168789;22;88511;-76
2023/09/23 03:40:15;;;;;;;8.98;1.85;;;11.10;99.90;;;;;;6168229;22;86895;-75
2023/09/23 03:42:42;;;;;;;8.40;1.73;;;11.10;99.90;;;;;;6167966;22;90757;-76
2023/09/23 03:45:12;;;;;;;6.25;1.73;;;11.10;99.90;;;;;;6169764;22;87546;-76
2023/09/23 03:47:38;;;;;;;11.00;2.00;;;11.10;99.90;;;;;;6167010;22;90575;-76
2023/09/23 03:50:05;;;;;;;4.97;1.80;;;11.10;99.90;;;;;;6167757;22;87250;-76
2023/09/23 03:52:32;;;;;;;7.85;1.48;;;11.10;99.90;;;;;;6166870;22;89581;-76
2023/09/23 03:54:58;;;;;;;6.00;1.38;;;11.00;99.90;;;;;;6168027;22;89563;-76
2023/09/23 03:57:24;;;;;;;7.43;1.55;;;11.00;99.90;;;;;;6168325;22;87653;-76
2023/09/23 03:59:51;;;;;;;5.45;1.67;;;11.00;99.90;;;;;;6169219;22;87344;-75
2023/09/23 04:02:16;;;;;;;7.88;1.67;;;11.00;99.90;;;;;;6168936;22;90424;-75
2023/09/23 04:04:42;;;;;;;10.77;1.60;;;10.90;99.90;;;;;;6169432;22;89200;-76
2023/09/23 04:07:08;;;;;;;8.35;2.30;;;10.90;99.90;;;;;;6168046;22;88104;-76
2023/09/23 04:09:34;;;;;;;7.22;1.63;;;10.90;99.90;;;;;;6169249;22;88008;-76
2023/09/23 04:12:04;;;;;;;9.95;2.63;;;10.90;99.90;;;;;;6167105;22;89501;-76
2023/09/23 04:14:29;;;;;;;8.90;1.67;;;10.90;99.90;;;;;;6169201;22;88099;-76
2023/09/23 04:16:55;;;;;;;6.78;1.95;;;10.90;99.90;;;;;;6167795;22;91565;-76
2023/09/23 04:19:20;;;;;;;8.93;2.50;;;10.90;99.90;;;;;;6169024;22;87416;-76
2023/09/23 04:21:46;;;;;;;10.18;1.45;;;10.90;99.90;;;;;;6168875;22;87763;-76
2023/09/23 04:24:12;;;;;;;5.72;1.38;;;10.80;99.90;;;;;;6166833;22;91218;-76
2023/09/23 04:26:38;;;;;;;7.55;2.03;;;10.80;99.90;;;;;;6168042;22;90708;-76
2023/09/23 04:29:04;;;;;;;7.97;1.70;;;10.80;99.90;;;;;;6167185;22;87336;-76
2023/09/23 04:31:30;;;;;;;9.70;1.67;;;10.80;99.90;;;;;;6167340;22;87783;-76
2023/09/23 04:33:55;;;;;;;5.55;1.55;;;10.80;99.90;;;;;;6168124;22;91165;-76
2023/09/23 04:36:21;;;;;;;7.45;1.88;;;10.70;99.90;;;;;;6170309;22;89131;-75
2023/09/23 04:38:48;;;;;;;11.45;3.40;;;10.70;99.90;;;;;;6170779;22;87449;-76
2023/09/23 04:41:16;;;;;;;5.05;2.55;;;10.60;99.90;;;;;;6170296;22;87544;-76
2023/09/23 04:43:42;;;;;;;5.10;1.33;;;10.60;99.90;;;;;;6169382;22;91883;-76
2023/09/23 04:46:08;;;;;;;6.15;1.48;;;10.60;99.90;;;;;;6171044;22;87329;-76
2023/09/23 04:48:34;;;;;;;5.13;1.40;;;10.60;99.90;;;;;;6171627;22;87684;-76
2023/09/23 04:50:59;;;;;;;3.38;1.45;;;10.60;99.90;;;;;;6170580;22;87548;-76
2023/09/23 04:53:26;;;;;;;7.63;1.45;;;10.50;99.90;;;;;;6169150;22;87370;-76
2023/09/23 04:55:52;;;;;;;5.90;1.70;;;10.50;99.90;;;;;;6167760;22;89815;-76
2023/09/23 04:58:18;;;;;;;9.98;1.80;;;10.50;99.90;;;;;;6167535;22;87652;-77
2023/09/23 05:00:43;;;;;;;7.03;1.50;;;10.50;99.90;;;;;;6169413;22;90832;-76
2023/09/23 05:03:09;;;;;;;9.38;1.70;;;10.40;99.90;;;;;;6168525;22;91206;-76
2023/09/23 05:05:36;;;;;;;7.75;1.58;;;10.40;99.90;;;;;;6169856;22;87627;-76
2023/09/23 05:08:09;;;;;;;10.57;1.67;;;10.40;99.90;;;;;;6168563;22;87621;-77
2023/09/23 05:10:35;;;;;;;5.57;1.37;;;10.40;99.90;;;;;;6169265;22;87836;-77
2023/09/23 05:13:01;;;;;;;8.48;1.63;;;10.30;99.90;;;;;;6168963;22;88313;-76
2023/09/23 05:15:29;;;;;;;7.38;1.65;;;10.30;99.90;;;;;;6170669;22;87875;-76
2023/09/23 05:17:54;;;;;;;7.35;1.77;;;10.30;99.90;;;;;;6171335;22;86938;-76
2023/09/23 05:20:22;;;;;;;8.07;2.22;;;10.30;99.90;;;;;;6170311;22;87412;-76
2023/09/23 05:22:48;;;;;;;6.28;1.83;;;10.30;99.90;;;;;;6168413;22;90608;-77
2023/09/23 05:25:14;;;;;;;6.57;1.40;;;10.30;99.90;;;;;;6168951;22;88533;-76
2023/09/23 05:27:40;;;;;;;8.48;1.65;;;10.30;99.90;;;;;;6169033;22;87586;-76
2023/09/23 05:30:10;;;;;;;8.18;2.20;;;10.40;99.90;;;;;;6167447;22;90928;-77
2023/09/23 05:32:37;;;;;;;4.68;1.90;;;10.40;99.90;;;;;;6170718;22;88029;-77
2023/09/23 05:35:27;;;;;;;13.32;2.13;;;10.40;99.90;;;;;;6167871;22;88330;-76
2023/09/23 05:37:53;;;;;;;12.20;1.77;;;10.40;99.90;;;;;;6169335;22;87406;-76
2023/09/23 05:42:48;;;;;;;8.70;2.53;;;10.40;99.90;;;;;;6172086;22;87231;-76
2023/09/23 05:45:15;;;;;;;9.05;2.15;;;10.50;99.90;;;;;;6169636;22;87706;-77
2023/09/23 05:47:45;;;;;;;10.20;2.13;;;10.40;99.90;;;;;;6169143;22;87564;-77
2023/09/23 05:50:11;;;;;;;11.15;1.75;;;10.50;99.90;;;;;;6168118;22;88764;-76
2023/09/23 05:52:36;;;;;;;5.35;1.42;;;10.50;99.90;;;;;;6171559;22;88152;-77
2023/09/23 05:55:06;;;;;;;7.07;1.98;;;10.50;99.90;;;;;;6171902;22;89520;-76
2023/09/23 05:57:34;;;;;;;8.13;2.22;;;10.60;99.90;;;;;;6171278;22;88146;-76
2023/09/23 06:00:02;;;;;;;9.30;2.22;;;10.60;99.90;;;;;;6173673;22;88085;-76
2023/09/23 06:02:28;;;;;;;6.85;2.33;;;10.60;99.90;;;;;;6170439;22;88161;-76
2023/09/23 06:04:54;;;;;;;8.15;1.63;;;10.60;99.90;;;;;;6170170;22;91745;-75
2023/09/23 06:07:19;;;;;;;8.55;2.25;;;10.60;99.90;;;;;;6171100;22;86879;-75
2023/09/23 06:09:45;;;;;;;9.07;2.22;;;10.60;99.90;;;;;;6169705;22;90616;-75
2023/09/23 06:12:11;;;;;;;8.80;2.00;;;10.70;99.90;;;;;;6152686;22;88632;-75
2023/09/23 06:14:36;;;;;;;8.70;2.50;;;10.70;99.90;;;;;;6169284;22;91602;-76
2023/09/23 06:17:02;;;;;;;6.90;2.08;;;10.70;99.90;;;;;;6170085;22;87112;-76
2023/09/23 06:19:30;;;;;;;12.30;2.50;;;10.80;99.90;;;;;;6169170;22;87634;-77
2023/09/23 06:21:56;;;;;;;5.60;1.75;;;10.80;99.90;;;;;;6170095;22;88150;-77
2023/09/23 06:24:27;;;;;;;5.15;1.70;;;10.80;99.90;;;;;;6170479;22;89970;-76
2023/09/23 06:26:52;;;;;;;6.38;2.20;;;10.80;99.90;;;;;;6170983;22;87574;-76
2023/09/23 06:29:18;;;;;;;6.60;1.90;;;10.90;99.90;;;;;;6170037;22;87555;-76
2023/09/23 06:31:43;;;;;;;4.78;1.98;;;10.90;99.90;;;;;;6170683;22;87013;-75
2023/09/23 06:34:09;;;;;;;7.47;2.55;;;11.00;99.90;;;;;;6170352;22;88038;-75
2023/09/23 06:36:35;;;;;;;7.13;2.50;;;11.00;99.90;;;;;;6169246;22;87957;-75
2023/09/23 06:39:00;;;;;;;7.50;1.90;;;11.10;99.90;;;;;;6167840;22;91050;-76
2023/09/23 06:41:26;;;;;;;7.32;1.75;;;11.10;99.90;;;;;;6168180;22;90074;-76
2023/09/23 06:43:52;;;;;;;8.50;2.13;;;11.20;99.90;;;;;;6169757;22;89531;-76
2023/09/23 06:46:18;;;;;;;9.32;1.92;;;11.20;99.90;;;;;;6171989;22;87618;-76
2023/09/23 06:48:43;;;;;;;5.68;1.75;;;11.20;99.90;;;;;;6172926;22;91009;-75
2023/09/23 06:51:10;;;;;;;9.40;2.50;;;11.30;99.90;;;;;;6154530;22;88227;-76
2023/09/23 06:53:36;;;;;;;6.72;1.98;;;11.30;99.90;;;;;;6169232;22;91138;-75
2023/09/23 06:56:02;;;;;;;17.40;2.22;;;11.40;99.90;;;;;;6169949;22;86846;-73
2023/09/23 06:58:27;;;;;;;10.57;2.47;;;11.50;99.90;;;;;;6170609;22;87455;-78
2023/09/23 07:00:54;;;;;;;8.93;2.33;;;11.50;99.90;;;;;;6171283;22;89231;-78
2023/09/23 07:03:20;;;;;;;5.03;1.80;;;11.60;99.90;;;;;;6171670;22;90713;-78
2023/09/23 07:05:46;;;;;;;7.82;2.15;;;11.60;99.90;;;;;;6169114;22;87641;-73
2023/09/23 07:08:12;;;;;;;7.15;2.30;;;11.70;99.90;;;;;;6166591;22;93490;-73
2023/09/23 07:10:39;;;;;;;11.30;2.28;;;11.70;99.90;;;;;;6169515;22;88145;-73
2023/09/23 07:13:06;;;;;;;8.65;2.15;;;11.80;99.90;;;;;;6170420;22;87817;-73
2023/09/23 07:15:39;;;;;;;10.60;2.22;;;11.80;99.90;;;;;;6169763;22;87951;-74
2023/09/23 07:18:05;;;;;;;4.57;1.73;;;11.90;99.90;;;;;;6168363;22;87442;-74
2023/09/23 07:20:31;;;;;;;6.82;2.88;;;12.00;99.90;;;;;;6168226;22;90934;-74
2023/09/23 07:22:58;;;;;;;11.45;2.03;;;12.00;99.90;;;;;;6169346;22;87433;-74
2023/09/23 07:25:26;;;;;;;11.23;2.25;;;12.10;99.90;;;;;;6169651;22;88602;-73
2023/09/23 07:27:52;;;;;;;8.13;2.13;;;12.20;99.90;;;;;;6168577;22;88553;-74
2023/09/23 07:30:17;;;;;;;8.20;2.50;;;12.20;99.90;;;;;;6169272;22;87534;-74
2023/09/23 07:32:43;;;;;;;10.00;2.50;;;12.20;99.90;;;;;;6169930;22;87674;-73
2023/09/23 07:35:09;;;;;;;6.60;2.22;;;12.30;99.90;;;;;;6172313;22;87454;-80
2023/09/23 07:50:49;;;;;;;7.43;2.00;;;12.70;99.90;;;;;;6101666;22;89837;-79
2023/09/23 08:01:01;;;;;;;10.27;3.20;;;13.00;99.90;;;;;;6147884;22;89377;-80
2023/09/23 08:03:33;;;;;;;7.57;2.60;;;13.00;99.90;;;;;;6118848;22;88827;-83
2023/09/23 08:05:58;;;;;;;6.95;2.60;;;13.10;99.90;;;;;;6156770;22;87775;-74
2023/09/23 08:08:26;;;;;;;9.02;2.22;;;13.10;99.90;;;;;;6161611;22;88332;-74
2023/09/23 08:10:53;;;;;;;8.18;2.75;;;13.20;99.90;;;;;;6139420;22;86924;-74
2023/09/23 08:13:20;;;;;;;5.25;2.70;;;13.30;99.90;;;;;;6136364;22;87549;-73
2023/09/23 08:15:48;;;;;;;6.25;2.30;;;13.40;99.90;;;;;;6139286;22;87848;-73
2023/09/23 08:18:14;;;;;;;5.68;2.10;;;13.40;99.90;;;;;;6124232;22;88540;-74
2023/09/23 08:20:40;;;;;;;17.35;3.90;;;13.50;99.90;;;;;;6161724;22;89776;-74
2023/09/23 08:23:06;;;;;;;7.88;2.45;;;13.50;99.90;;;;;;6135738;22;88468;-73
2023/09/23 08:25:33;;;;;;;5.13;2.33;;;13.50;99.90;;;;;;6136412;22;87642;-74
2023/09/23 08:28:00;;;;;;;8.63;2.08;;;13.50;99.90;;;;;;6138866;22;87983;-74
2023/09/23 08:30:25;;;;;;;10.60;2.92;;;13.60;99.90;;;;;;6145530;22;88514;-81
2023/09/23 08:32:51;;;;;;;9.55;2.42;;;13.60;99.90;;;;;;6145271;22;91444;-80
2023/09/23 08:35:17;;;;;;;5.05;2.42;;;13.70;99.90;;;;;;6146112;22;86946;-79
2023/09/23 08:37:45;;;;;;;8.05;2.78;;;13.70;99.90;;;;;;6143996;22;87713;-79
2023/09/23 08:40:12;;;;;;;9.65;2.88;;;13.90;99.90;;;;;;6147560;22;89394;-78
2023/09/23 08:42:38;;;;;;;9.52;2.38;;;14.00;99.90;;;;;;6145180;22;88446;-80
2023/09/23 08:45:11;;;;;;;10.88;3.17;;;14.10;99.90;;;;;;6147718;22;87101;-78
2023/09/23 08:47:38;;;;;;;7.38;2.60;;;14.20;99.90;;;;;;6081962;23;87555;-79
2023/09/23 08:50:14;;;;;;;14.02;3.00;;;14.30;99.90;;;;;;6085098;23;87426;-77
2023/09/23 08:52:39;;;;;;;7.65;2.50;;;14.40;99.90;;;;;;6083468;23;87562;-77
2023/09/23 08:55:07;;;;;;;12.32;3.35;;;14.40;99.90;;;;;;6088882;23;87503;-78
2023/09/23 08:57:33;;;;;;;5.25;2.08;;;14.50;99.90;;;;;;6088452;23;91298;-78
2023/09/23 08:59:58;;;;;;;8.60;2.40;;;14.50;99.90;;;;;;6103466;22;91025;-78
2023/09/23 09:02:25;;;;;;;7.60;2.47;;;14.50;99.90;;;;;;6120826;22;88710;-81
2023/09/23 09:04:55;;;;;;;9.10;2.80;;;14.60;99.90;;;;;;6111032;22;87743;-80
2023/09/23 09:07:39;;;;;;;8.63;2.35;;;14.60;99.90;;;;;;6136327;22;89715;-79
2023/09/23 09:10:06;;;;;;;7.82;2.63;;;14.60;99.90;;;;;;6142607;22;91087;-78
2023/09/23 09:12:33;;;;;;;9.43;2.63;;;14.60;99.90;;;;;;6138678;22;97521;-81
2023/09/23 09:14:59;;;;;;;6.85;2.30;;;14.60;99.90;;;;;;6113519;22;87344;-80
2023/09/23 09:17:25;;;;;;;7.70;2.70;;;14.70;99.90;;;;;;6136205;22;90241;-79
2023/09/23 09:19:50;;;;;;;9.05;2.20;;;14.70;99.90;;;;;;6114860;23;87919;-79
2023/09/23 09:22:19;;;;;;;7.25;2.30;;;14.70;99.90;;;;;;6138793;22;89055;-78
2023/09/23 09:24:47;;;;;;;6.63;2.45;;;14.80;99.90;;;;;;6115128;23;86939;-78
2023/09/23 09:27:14;;;;;;;6.82;1.95;;;14.80;99.90;;;;;;6134981;22;89116;-78
2023/09/23 09:29:43;;;;;;;7.75;1.85;;;14.90;99.90;;;;;;6134895;22;91403;-81
2023/09/23 09:32:11;;;;;;;5.57;2.05;;;15.00;99.90;;;;;;6115143;22;88053;-78
2023/09/23 09:34:45;;;;;;;7.78;1.65;;;15.10;99.90;;;;;;6113929;23;92815;-80
2023/09/23 09:37:15;;;;;;;7.00;1.70;;;15.10;99.40;;;;;;6134854;22;90158;-79
2023/09/23 09:39:51;;;;;;;6.63;1.23;;;15.20;99.90;;;;;;6134581;22;92237;-79
2023/09/23 09:42:26;;;;;;;5.75;1.35;;;15.30;98.40;;;;;;6137331;22;91017;-80
2023/09/23 09:44:55;;;;;;;7.53;1.63;;;15.40;98.40;;;;;;6138245;22;88038;-78
2023/09/23 09:47:22;;;;;;;5.85;1.60;;;15.30;98.30;;;;;;6137223;22;88572;-80
2023/09/23 09:49:54;;;;;;;6.13;1.50;;;15.40;98.90;;;;;;6114431;23;86995;-78
2023/09/23 09:52:26;;;;;;;7.55;1.55;;;15.50;98.40;;;;;;6115798;22;88035;-80
2023/09/23 09:54:58;;;;;;;6.18;1.48;;;15.50;98.00;;;;;;6137276;22;87772;-79
2023/09/23 09:57:29;;;;;;;14.23;3.13;;;15.70;98.10;;;;;;6108983;23;88545;-78
2023/09/23 10:00:35;;;;;;;4.30;1.20;;;15.80;97.20;;;;;;6133214;22;90128;-78
2023/09/23 10:03:12;;;;;;;4.50;1.40;;;15.80;97.40;;;;;;6108611;22;87809;-78
2023/09/23 10:05:50;;;;;;;5.55;1.48;;;15.90;97.70;;;;;;6111037;23;87817;-78
2023/09/23 10:08:24;;;;;;;5.78;1.75;;;15.90;97.00;;;;;;6132120;22;91101;-77
2023/09/23 10:10:57;;;;;;;10.40;1.90;;;15.90;97.20;;;;;;6108616;23;88605;-77
2023/09/23 10:13:23;;;;;;;5.93;1.58;;;16.00;96.70;;;;;;6134706;22;91635;-78
2023/09/23 10:15:50;;;;;;;5.57;1.40;;;16.00;96.70;;;;;;6111611;23;86727;-78
2023/09/23 10:18:19;;;;;;;6.63;1.80;;;16.10;96.70;;;;;;6133242;22;88875;-78
2023/09/23 10:20:54;;;;;;;6.78;1.60;;;16.20;96.90;;;;;;6110731;22;87559;-77
2023/09/23 10:23:21;;;;;;;7.85;1.35;;;16.30;96.40;;;;;;6110093;23;88758;-77
2023/09/23 10:25:52;;;;;;;3.47;1.30;;;16.40;95.90;;;;;;6110653;22;88201;-77
2023/09/23 10:28:23;;;;;;;8.02;1.42;;;16.60;96.80;;;;;;6109427;23;87950;-76
2023/09/23 10:30:59;;;;;;;8.27;1.40;;;16.60;95.00;;;;;;6134429;22;89399;-78
2023/09/23 10:33:28;;;;;;;5.65;1.27;;;16.70;95.40;;;;;;6115001;22;91116;-78
2023/09/23 10:35:56;;;;;;;10.70;2.00;;;16.80;94.50;;;;;;6151785;22;87612;-82
2023/09/23 10:38:23;;;;;;;5.10;0.98;;;16.90;94.30;;;;;;6100926;22;88319;-76
2023/09/23 10:40:53;;;;;;;5.00;1.30;;;17.00;94.20;;;;;;6108905;23;87571;-75
2023/09/23 10:43:22;;;;;;;15.70;1.73;;;16.90;93.80;;;;;;6093652;22;90147;-75
2023/09/23 10:45:52;;;;;;;7.43;2.28;;;16.90;95.10;;;;;;6087568;23;87672;-78
2023/09/23 10:48:18;;;;;;;4.85;1.20;;;17.00;94.70;;;;;;6132682;22;90232;-78
2023/09/23 10:50:45;;;;;;;11.43;1.48;;;17.00;93.90;;;;;;6133321;22;91754;-77
2023/09/23 10:53:12;;;;;;;15.23;1.80;;;17.00;94.30;;;;;;6132141;22;90036;-78
2023/09/23 10:55:40;;;;;;;12.77;2.38;;;17.10;93.90;;;;;;6111173;22;87592;-80
2023/09/23 10:58:10;;;;;;;3.70;1.60;;;17.20;94.20;;;;;;6111116;22;87652;-78
2023/09/23 11:00:40;;;;;;;9.60;2.00;;;17.30;93.80;;;;;;6110545;23;92185;-78
2023/09/23 11:03:10;;;;;;;5.72;1.42;;;17.40;93.80;;;;;;6111413;22;87644;-78
2023/09/23 11:05:37;;;;;;;7.22;1.40;;;17.50;93.00;;;;;;6111729;22;86605;-78
2023/09/23 11:08:13;;;;;;;5.05;1.58;;;17.50;92.60;;;;;;6124176;23;87663;-79
2023/09/23 11:10:47;;;;;;;7.68;1.60;;;17.60;92.80;;;;;;6136023;22;87989;-80
2023/09/23 11:26:11;;;;;;;7.30;1.52;;;18.00;91.40;;;;;;6153640;22;87177;-79
2023/09/23 11:28:37;;;;;;;9.27;1.52;;;18.00;91.10;;;;;;6181170;22;87422;-79
2023/09/23 11:31:02;;;;;;;6.97;1.55;;;18.00;91.70;;;;;;6178619;22;90618;-78
2023/09/23 11:33:28;;;;;;;2.85;1.10;;;18.00;91.50;;;;;;6180019;22;87503;-79
2023/09/23 11:35:54;;;;;;;4.55;0.93;;;18.00;91.70;;;;;;6182219;22;86965;-80
2023/09/23 11:38:20;;;;;;;4.20;1.35;;;18.10;91.20;;;;;;6182379;22;89027;-82
2023/09/23 11:40:46;;;;;;;6.05;1.73;;;18.20;91.20;;;;;;6179261;22;87911;-81
2023/09/23 11:43:12;;;;;;;7.32;1.30;;;18.40;91.70;;;;;;6176725;22;88939;-80
2023/09/23 11:45:41;;;;;;;4.93;0.68;;;18.70;90.80;;;;;;6177701;22;87282;-80
2023/09/23 11:48:08;;;;;;;4.90;1.27;;;18.80;89.80;;;;;;6168827;22;90293;-79
2023/09/23 11:50:35;;;;;;;5.03;1.00;;;18.80;89.70;;;;;;6175075;22;88918;-79
2023/09/23 11:53:01;;;;;;;5.30;0.82;;;18.90;89.10;;;;;;6176400;22;87871;-80
2023/09/23 11:55:27;;;;;;;4.53;0.70;;;18.90;87.20;;;;;;6180378;22;86948;-80
2023/09/23 11:57:54;;;;;;;6.90;1.52;;;18.80;86.80;;;;;;6183494;22;87396;-80
2023/09/23 12:00:20;;;;;;;4.70;0.80;;;18.80;87.60;;;;;;6178973;22;90044;-79
2023/09/23 12:02:48;;;;;;;5.60;1.25;;;18.70;87.90;;;;;;6183984;22;88334;-78
2023/09/23 12:05:16;;;;;;;10.13;1.45;;;18.60;88.30;;;;;;6179865;22;87295;-79
2023/09/23 12:07:42;;;;;;;3.92;0.88;;;18.50;88.00;;;;;;6174701;22;90671;-78
2023/09/23 12:10:09;;;;;;;3.78;0.70;;;18.40;87.90;;;;;;6185407;22;87863;-82
2023/09/23 12:12:36;;;;;;;5.85;0.50;;;18.30;89.50;;;;;;6193753;22;87832;-80
2023/09/23 12:15:02;;;;;;;5.38;0.60;;;18.20;88.70;;;;;;6207405;22;86801;-82
2023/09/23 12:17:28;;;;;;;7.78;0.45;;;18.30;90.10;;;;;;6203199;22;87182;-79
2023/09/23 12:19:54;;;;;;;6.75;1.23;;;18.50;90.10;;;;;;6197878;22;86418;-79
2023/09/23 12:24:56;;;;;;;4.47;0.70;;;18.80;88.60;;;;;;6127909;22;89835;-79
2023/09/23 12:27:22;;;;;;;1.95;0.50;;;19.00;88.60;;;;;;6188919;22;88574;-78
2023/09/23 12:29:48;;;;;;;4.63;0.55;;;19.10;86.90;;;;;;6166060;22;87445;-81
2023/09/23 12:32:13;;;;;;;4.78;0.68;;;19.20;85.90;;;;;;6160616;22;88011;-77
2023/09/23 12:34:39;;;;;;;2.30;0.47;;;19.40;87.20;;;;;;6162778;22;87350;-77
2023/09/23 12:37:05;;;;;;;5.90;0.68;;;19.60;87.50;;;;;;6188935;22;90441;-77
2023/09/23 12:39:32;;;;;;;5.00;0.88;;;19.80;83.50;;;;;;6157933;22;91058;-77
2023/09/23 12:42:00;;;;;;;5.13;0.70;;;19.90;83.10;;;;;;6177691;22;87902;-75
2023/09/23 12:44:26;;;;;;;6.88;0.70;;;20.00;83.60;;;;;;6189047;22;86262;-77
2023/09/23 12:46:51;;;;;;;3.47;0.50;;;20.30;82.80;;;;;;6177614;22;93416;-76
2023/09/23 12:49:17;;;;;;;4.57;0.60;;;20.50;81.80;;;;;;6158804;22;88043;-79
2023/09/23 12:51:47;;;;;;;6.28;0.70;;;20.60;80.70;;;;;;6159725;22;87890;-78
2023/09/23 12:54:13;;;;;;;3.42;0.50;;;20.80;78.10;;;;;;6159329;22;87163;-77
2023/09/23 12:56:45;;;;;;;8.48;0.70;;;21.00;79.00;;;;;;6160554;22;87089;-76
2023/09/23 12:59:11;;;;;;;3.63;0.80;;;21.10;77.80;;;;;;6158093;22;91395;-77
2023/09/23 13:01:48;;;;;;;2.55;0.55;;;21.20;77.40;;;;;;6160485;22;87861;-78
2023/09/23 13:04:13;;;;;;;3.03;0.73;;;21.30;74.60;;;;;;6161319;22;87008;-78
2023/09/23 13:06:52;;;;;;;13.85;1.35;;;21.40;73.80;;;;;;6160854;22;87004;-76
2023/09/23 13:09:18;;;;;;;7.85;1.45;;;21.60;75.00;;;;;;6159774;22;89783;-75
2023/09/23 13:11:46;;;;;;;3.83;0.73;;;21.70;73.70;;;;;;6160171;22;87521;-78
2023/09/23 13:14:11;;;;;;;3.50;0.70;;;21.80;74.40;;;;;;6162019;22;86858;-77
2023/09/23 13:16:37;;;;;;;3.17;0.95;;;22.00;72.80;;;;;;6157970;22;88108;-76
2023/09/23 13:19:03;;;;;;;2.90;0.60;;;21.80;69.90;;;;;;6160407;22;88024;-76
2023/09/23 13:24:52;;;;;;;3.55;0.70;;;22.00;71.50;;;;;;6144880;22;87058;-78
2023/09/23 13:27:18;;;;;;;2.58;0.50;;;21.80;69.00;;;;;;6161038;22;87151;-77
2023/09/23 13:30:03;;;;;;;4.22;0.85;;;21.60;71.10;;;;;;6159616;22;90972;-76
2023/09/23 13:32:29;;;;;;;2.63;0.63;;;21.50;72.20;;;;;;6158879;22;89739;-75
2023/09/23 13:35:44;;;;;;;4.30;0.70;;;21.30;71.80;;;;;;6172137;22;86251;-76